»·PEaware :: N360BG KEUG-KPDX

N360BG :: KEUG-KPDX

FLIGHT INFORMATION

Flight Status: Arrived
Operator: Privately registered:
United States
More flights under this callsign
Pilot: Brandon G. (13)
Aircraft: BEECH AIRCRAFT A90-E90 KING AIR
(BE9L)
More flights by this aircraft type
Origin: KEUG Mahlon Sweet
United States
Destination: KPDX Portland Intl
United States
More flights between these airports :: More routes between these airports
Route: EUG V23 BTG
File this flight plan on PilotEdge
Remarks:
Altitude:
(Current/Filed)
17,000ft
Speed:
(Current/Filed)
250kts
Departed: 23-Dec-17 10:22 PM
Arrived: 23-Dec-17 10:54 PM
Distance/Time
Traveled:
92nm/0:31
Distance/Time
To Go:
Arrived

Flight Plot

Page will automatically refresh every two minutes.

Flight plan parsing failed; only flown route is shown


Map Options




Map Legend


Flown Route
Filed Route
Departure Airport
Arrival Airport
Navaid (VOR, NDB)
Fix

Horizontal Profiles

Position Reports

Time Latitude Longitude Heading Altitude Ground
Speed
23-Dec-17 22:14 44.117920 -123.215197 42 367ft 0kts
23-Dec-17 22:15 44.117920 -123.215197 42 367ft 0kts
23-Dec-17 22:16 44.117920 -123.215197 42 367ft 0kts
23-Dec-17 22:17 44.117920 -123.215197 42 367ft 0kts
23-Dec-17 22:18 44.117920 -123.215197 42 367ft 0kts
23-Dec-17 22:19 44.117920 -123.215197 42 367ft 0kts
23-Dec-17 22:20 44.117920 -123.215197 42 367ft 0kts
23-Dec-17 22:21 44.117920 -123.215197 42 367ft 0kts
23-Dec-17 22:22 44.117921 -123.215197 42 367ft 0kts
23-Dec-17 22:23 44.117921 -123.215197 42 367ft 0kts
23-Dec-17 22:24 44.117921 -123.215197 42 367ft 0kts
23-Dec-17 22:25 44.118495 -123.215631 288 367ft 6kts
23-Dec-17 22:26 44.115133 -123.216911 179 367ft 19kts
23-Dec-17 22:27 44.113665 -123.217418 265 366ft 0kts
23-Dec-17 22:28 44.119035 -123.218883 359 364ft 93kts
23-Dec-17 22:29 44.151886 -123.221470 5 1892ft 120kts
23-Dec-17 22:30 44.191691 -123.214812 5 3490ft 154kts
23-Dec-17 22:31 44.229089 -123.183234 29 5245ft 164kts
23-Dec-17 22:32 44.272674 -123.166005 12 6993ft 167kts
23-Dec-17 22:33 44.318291 -123.148863 12 8706ft 175kts
23-Dec-17 22:34 44.364786 -123.131376 12 10364ft 177kts
23-Dec-17 22:35 44.412683 -123.113321 13 11826ft 182kts
23-Dec-17 22:36 44.462226 -123.094610 12 13134ft 188kts
23-Dec-17 22:37 44.512363 -123.075653 10 14433ft 189kts
23-Dec-17 22:38 44.563095 -123.056425 9 15576ft 192kts
23-Dec-17 22:39 44.614420 -123.036947 7 16603ft 194kts
23-Dec-17 22:40 44.668918 -123.018046 1 17030ft 209kts
23-Dec-17 22:41 44.727009 -123.000970 6 17341ft 217kts
23-Dec-17 22:42 44.783926 -122.979978 7 17751ft 217kts
23-Dec-17 22:43 44.840127 -122.957992 7 17868ft 211kts
23-Dec-17 22:44 44.897720 -122.932437 10 17203ft 235kts
23-Dec-17 22:45 44.933173 -122.897053 49 16836ft 257kts
23-Dec-17 22:46 44.997069 -122.882797 359 15198ft 247kts
23-Dec-17 22:47 45.064858 -122.865869 9 13597ft 249kts
23-Dec-17 22:48 45.129089 -122.842388 12 12226ft 244kts
23-Dec-17 22:49 45.191875 -122.817702 13 10799ft 231kts
23-Dec-17 22:50 45.250791 -122.794035 13 9227ft 218kts
23-Dec-17 22:51 45.308399 -122.770729 14 7633ft 215kts
23-Dec-17 22:52 45.361900 -122.749085 15 6131ft 212kts
23-Dec-17 22:53 45.417820 -122.726406 17 4538ft 210kts
23-Dec-17 22:54 45.470829 -122.704836 18 3823ft 191kts
23-Dec-17 22:55 45.522441 -122.684912 16 3007ft 202kts
23-Dec-17 22:56 45.577006 -122.664323 19 1178ft 191kts
23-Dec-17 22:57 45.595184 -122.653364 47 771ft 123kts
23-Dec-17 22:58 45.599408 -122.614953 89 217ft 99kts
23-Dec-17 22:59 45.591645 -122.587515 120 20ft 45kts
23-Dec-17 23:00 45.588791 -122.583475 299 19ft 23kts
23-Dec-17 23:01 45.589370 -122.587008 221 19ft 0kts
23-Dec-17 23:02 45.588694 -122.586915 114 19ft 0kts
23-Dec-17 23:03 45.588694 -122.586915 114 19ft 0kts
23-Dec-17 23:04 45.588694 -122.586915 114 19ft 0kts
23-Dec-17 23:05 45.588694 -122.586915 114 19ft 0kts
23-Dec-17 23:06 45.588694 -122.586915 114 19ft 0kts
23-Dec-17 23:07 45.588694 -122.586915 114 19ft 0kts
23-Dec-17 23:08 45.588694 -122.586915 114 19ft 0kts
23-Dec-17 23:09 45.588694 -122.586915 114 19ft 0kts
23-Dec-17 23:10 45.588694 -122.586915 114 19ft 0kts
23-Dec-17 23:11 45.588694 -122.586915 114 19ft 0kts
23-Dec-17 23:12 45.588694 -122.586915 114 19ft 0kts
23-Dec-17 23:13 45.588694 -122.586915 114 19ft 0kts
23-Dec-17 23:14 45.588694 -122.586915 114 19ft 0kts

Navigation Log

Ident Type
Flight plan parsing failed, navigation log unavailable